sensor_id;sensor_type;location;lat;lon;timestamp;pressure;altitude;pressure_sealevel;temperature;humidity
14800;BME280;7491;57.750;11.970;2023-03-16T00:00:13;77713.28;;;-142.11;100.00
14800;BME280;7491;57.750;11.970;2023-03-16T00:02:42;77692.88;;;-142.11;100.00
14800;BME280;7491;57.750;11.970;2023-03-16T00:05:09;77694.91;;;-142.11;100.00
14800;BME280;7491;57.750;11.970;2023-03-16T00:07:37;77709.19;;;-142.11;100.00
14800;BME280;7491;57.750;11.970;2023-03-16T00:10:05;77694.91;;;-142.11;100.00
14800;BME280;7491;57.750;11.970;2023-03-16T00:12:31;77701.03;;;-142.11;100.00
14800;BME280;7491;57.750;11.970;2023-03-16T00:14:59;77703.09;;;-142.11;100.00
14800;BME280;7491;57.750;11.970;2023-03-16T00:17:26;77711.25;;;-142.11;100.00
14800;BME280;7491;57.750;11.970;2023-03-16T00:19:56;77707.16;;;-142.11;100.00
14800;BME280;7491;57.750;11.970;2023-03-16T00:22:25;77727.56;;;-142.11;100.00
14800;BME280;7491;57.750;11.970;2023-03-16T00:24:52;77752.03;;;-142.11;100.00
14800;BME280;7491;57.750;11.970;2023-03-16T00:27:20;77760.19;;;-142.11;100.00
14800;BME280;7491;57.750;11.970;2023-03-16T00:29:49;77780.59;;;-142.11;100.00
14800;BME280;7491;57.750;11.970;2023-03-16T00:32:21;77790.78;;;-142.11;100.00
14800;BME280;7491;57.750;11.970;2023-03-16T00:34:48;77788.75;;;-142.11;100.00
14800;BME280;7491;57.750;11.970;2023-03-16T00:37:18;77778.53;;;-142.11;100.00
14800;BME280;7491;57.750;11.970;2023-03-16T00:39:45;77764.25;;;-142.11;100.00
14800;BME280;7491;57.750;11.970;2023-03-16T00:42:14;77760.19;;;-142.11;100.00
14800;BME280;7491;57.750;11.970;2023-03-16T00:44:41;77772.41;;;-142.11;100.00
14800;BME280;7491;57.750;11.970;2023-03-16T00:47:09;77784.66;;;-142.11;100.00
14800;BME280;7491;57.750;11.970;2023-03-16T00:49:39;77800.97;;;-142.11;100.00
14800;BME280;7491;57.750;11.970;2023-03-16T00:52:08;77813.22;;;-142.11;100.00
14800;BME280;7491;57.750;11.970;2023-03-16T00:54:40;77831.56;;;-142.11;100.00
14800;BME280;7491;57.750;11.970;2023-03-16T00:57:09;77825.44;;;-142.11;100.00
14800;BME280;7491;57.750;11.970;2023-03-16T00:59:36;77843.81;;;-142.11;100.00
14800;BME280;7491;57.750;11.970;2023-03-16T01:02:03;77837.69;;;-142.11;100.00
14800;BME280;7491;57.750;11.970;2023-03-16T01:04:31;77843.81;;;-142.11;100.00
14800;BME280;7491;57.750;11.970;2023-03-16T01:06:58;77870.31;;;-142.11;100.00
14800;BME280;7491;57.750;11.970;2023-03-16T01:09:25;77851.97;;;-142.11;100.00
14800;BME280;7491;57.750;11.970;2023-03-16T01:11:54;77856.03;;;-142.11;100.00
14800;BME280;7491;57.750;11.970;2023-03-16T01:14:21;77874.41;;;-142.11;100.00
14800;BME280;7491;57.750;11.970;2023-03-16T01:16:48;77884.59;;;-142.11;100.00
14800;BME280;7491;57.750;11.970;2023-03-16T01:19:16;77880.50;;;-142.11;100.00
14800;BME280;7491;57.750;11.970;2023-03-16T01:21:43;77876.44;;;-142.11;100.00
14800;BME280;7491;57.750;11.970;2023-03-16T01:24:09;77896.84;;;-142.11;100.00
14800;BME280;7491;57.750;11.970;2023-03-16T01:26:36;77909.06;;;-142.11;100.00
14800;BME280;7491;57.750;11.970;2023-03-16T01:29:05;77909.06;;;-142.11;100.00
14800;BME280;7491;57.750;11.970;2023-03-16T01:31:32;77919.25;;;-142.11;100.00
14800;BME280;7491;57.750;11.970;2023-03-16T01:33:58;77925.38;;;-142.11;100.00
14800;BME280;7491;57.750;11.970;2023-03-16T01:36:27;77917.22;;;-142.11;100.00
14800;BME280;7491;57.750;11.970;2023-03-16T01:38:54;77925.38;;;-142.11;100.00
14800;BME280;7491;57.750;11.970;2023-03-16T01:41:20;77931.50;;;-142.11;100.00
14800;BME280;7491;57.750;11.970;2023-03-16T01:43:47;77929.47;;;-142.11;100.00
14800;BME280;7491;57.750;11.970;2023-03-16T01:46:20;77937.63;;;-142.11;100.00
14800;BME280;7491;57.750;11.970;2023-03-16T01:48:57;77941.69;;;-142.11;100.00
14800;BME280;7491;57.750;11.970;2023-03-16T01:51:28;77947.81;;;-142.11;100.00
14800;BME280;7491;57.750;11.970;2023-03-16T01:54:00;77949.84;;;-142.11;100.00
14800;BME280;7491;57.750;11.970;2023-03-16T01:56:32;77955.97;;;-142.11;100.00
14800;BME280;7491;57.750;11.970;2023-03-16T01:59:04;77953.94;;;-142.11;100.00
14800;BME280;7491;57.750;11.970;2023-03-16T02:01:36;77947.81;;;-142.11;100.00
14800;BME280;7491;57.750;11.970;2023-03-16T02:04:11;77960.06;;;-142.11;100.00
14800;BME280;7491;57.750;11.970;2023-03-16T02:06:40;77970.25;;;-142.11;100.00
14800;BME280;7491;57.750;11.970;2023-03-16T02:09:09;77978.41;;;-142.11;100.00
14800;BME280;7491;57.750;11.970;2023-03-16T02:11:37;77968.22;;;-142.11;100.00
14800;BME280;7491;57.750;11.970;2023-03-16T02:14:08;77968.22;;;-142.11;100.00
14800;BME280;7491;57.750;11.970;2023-03-16T02:16:37;77978.41;;;-142.11;100.00
14800;BME280;7491;57.750;11.970;2023-03-16T02:19:08;77998.81;;;-142.11;100.00
14800;BME280;7491;57.750;11.970;2023-03-16T02:21:42;77988.63;;;-142.11;100.00
14800;BME280;7491;57.750;11.970;2023-03-16T02:24:12;78011.03;;;-142.11;100.00
14800;BME280;7491;57.750;11.970;2023-03-16T02:26:41;78000.84;;;-142.11;100.00
14800;BME280;7491;57.750;11.970;2023-03-16T02:29:16;77998.81;;;-142.11;100.00
14800;BME280;7491;57.750;11.970;2023-03-16T02:31:48;78015.13;;;-142.11;100.00
14800;BME280;7491;57.750;11.970;2023-03-16T02:34:17;78033.47;;;-142.11;100.00
14800;BME280;7491;57.750;11.970;2023-03-16T02:36:45;78029.41;;;-142.11;100.00
14800;BME280;7491;57.750;11.970;2023-03-16T02:39:14;78033.47;;;-142.11;100.00
14800;BME280;7491;57.750;11.970;2023-03-16T02:41:41;78062.03;;;-142.11;100.00
14800;BME280;7491;57.750;11.970;2023-03-16T02:44:10;78041.63;;;-142.11;100.00
14800;BME280;7491;57.750;11.970;2023-03-16T02:46:41;78066.13;;;-142.11;100.00
14800;BME280;7491;57.750;11.970;2023-03-16T02:49:14;78082.44;;;-142.11;100.00
14800;BME280;7491;57.750;11.970;2023-03-16T02:51:43;78062.03;;;-142.11;100.00
14800;BME280;7491;57.750;11.970;2023-03-16T02:54:11;78066.13;;;-142.11;100.00
14800;BME280;7491;57.750;11.970;2023-03-16T02:56:38;78080.41;;;-142.11;100.00
14800;BME280;7491;57.750;11.970;2023-03-16T02:59:06;78086.50;;;-142.11;100.00
14800;BME280;7491;57.750;11.970;2023-03-16T03:01:33;78080.41;;;-142.11;100.00
14800;BME280;7491;57.750;11.970;2023-03-16T03:04:01;78064.06;;;-142.11;100.00
14800;BME280;7491;57.750;11.970;2023-03-16T03:06:30;78078.34;;;-142.11;100.00
14800;BME280;7491;57.750;11.970;2023-03-16T03:08:57;78086.50;;;-142.11;100.00
14800;BME280;7491;57.750;11.970;2023-03-16T03:11:24;78072.22;;;-142.11;100.00
14800;BME280;7491;57.750;11.970;2023-03-16T03:13:51;78070.19;;;-142.11;100.00
14800;BME280;7491;57.750;11.970;2023-03-16T03:16:18;78062.03;;;-142.11;100.00
14800;BME280;7491;57.750;11.970;2023-03-16T03:18:45;78080.41;;;-142.11;100.00
14800;BME280;7491;57.750;11.970;2023-03-16T03:21:12;78072.22;;;-142.11;100.00
14800;BME280;7491;57.750;11.970;2023-03-16T03:23:40;78068.16;;;-142.11;100.00
14800;BME280;7491;57.750;11.970;2023-03-16T03:26:11;78062.03;;;-142.11;100.00
14800;BME280;7491;57.750;11.970;2023-03-16T03:28:39;78064.06;;;-142.11;100.00
14800;BME280;7491;57.750;11.970;2023-03-16T03:31:06;78074.28;;;-142.11;100.00
14800;BME280;7491;57.750;11.970;2023-03-16T03:33:33;78090.59;;;-142.11;100.00
14800;BME280;7491;57.750;11.970;2023-03-16T03:36:00;78119.16;;;-142.11;100.00
14800;BME280;7491;57.750;11.970;2023-03-16T03:38:27;78111.00;;;-142.11;100.00
14800;BME280;7491;57.750;11.970;2023-03-16T03:40:55;78115.06;;;-142.11;100.00
14800;BME280;7491;57.750;11.970;2023-03-16T03:43:24;78119.16;;;-142.11;100.00
14800;BME280;7491;57.750;11.970;2023-03-16T03:45:55;78111.00;;;-142.11;100.00
14800;BME280;7491;57.750;11.970;2023-03-16T03:48:22;78121.19;;;-142.11;100.00
14800;BME280;7491;57.750;11.970;2023-03-16T03:50:49;78125.28;;;-142.11;100.00
14800;BME280;7491;57.750;11.970;2023-03-16T03:53:16;78115.06;;;-142.11;100.00
14800;BME280;7491;57.750;11.970;2023-03-16T03:55:44;78129.34;;;-142.11;100.00
14800;BME280;7491;57.750;11.970;2023-03-16T03:58:14;78108.94;;;-142.11;100.00
14800;BME280;7491;57.750;11.970;2023-03-16T04:00:41;78127.31;;;-142.11;100.00
14800;BME280;7491;57.750;11.970;2023-03-16T04:03:07;78141.59;;;-142.11;100.00
14800;BME280;7491;57.750;11.970;2023-03-16T04:05:34;78131.38;;;-142.11;100.00
14800;BME280;7491;57.750;11.970;2023-03-16T04:08:02;78108.94;;;-142.11;100.00
14800;BME280;7491;57.750;11.970;2023-03-16T04:10:29;78117.09;;;-142.11;100.00
14800;BME280;7491;57.750;11.970;2023-03-16T04:12:56;78117.09;;;-142.11;100.00
14800;BME280;7491;57.750;11.970;2023-03-16T04:15:25;78121.19;;;-142.11;100.00
14800;BME280;7491;57.750;11.970;2023-03-16T04:17:52;78141.59;;;-142.11;100.00
14800;BME280;7491;57.750;11.970;2023-03-16T04:20:19;78125.28;;;-142.11;100.00
14800;BME280;7491;57.750;11.970;2023-03-16T05:58:17;78170.13;;;-142.11;100.00
14800;BME280;7491;57.750;11.970;2023-03-16T06:00:43;78084.47;;;-142.11;100.00
14800;BME280;7491;57.750;11.970;2023-03-16T06:03:10;78088.56;;;-142.11;100.00
14800;BME280;7491;57.750;11.970;2023-03-16T06:05:37;78131.38;;;-142.11;100.00
14800;BME280;7491;57.750;11.970;2023-03-16T06:08:04;78080.41;;;-142.11;100.00
14800;BME280;7491;57.750;11.970;2023-03-16T06:10:30;77980.44;;;-142.11;100.00
14800;BME280;7491;57.750;11.970;2023-03-16T06:12:57;78113.03;;;-142.11;100.00
14800;BME280;7491;57.750;11.970;2023-03-16T06:15:26;78164.03;;;-142.11;100.00
14800;BME280;7491;57.750;11.970;2023-03-16T06:17:54;78055.91;;;-142.11;100.00
14800;BME280;7491;57.750;11.970;2023-03-16T06:20:21;78064.06;;;-142.11;100.00
14800;BME280;7491;57.750;11.970;2023-03-16T06:22:48;78041.63;;;-142.11;100.00
14800;BME280;7491;57.750;11.970;2023-03-16T06:25:16;78149.75;;;-142.11;100.00
14800;BME280;7491;57.750;11.970;2023-03-16T06:27:43;78178.31;;;-142.11;100.00
14800;BME280;7491;57.750;11.970;2023-03-16T06:30:11;78190.53;;;-142.11;100.00
14800;BME280;7491;57.750;11.970;2023-03-16T06:32:41;78202.78;;;-142.11;100.00
14800;BME280;7491;57.750;11.970;2023-03-16T06:35:09;78210.94;;;-142.11;100.00
14800;BME280;7491;57.750;11.970;2023-03-16T06:37:37;78208.91;;;-142.11;100.00
14800;BME280;7491;57.750;11.970;2023-03-16T06:40:05;78215.00;;;-142.11;100.00
14800;BME280;7491;57.750;11.970;2023-03-16T06:42:31;78155.84;;;-142.11;100.00
14800;BME280;7491;57.750;11.970;2023-03-16T06:44:58;78159.94;;;-142.11;100.00
14800;BME280;7491;57.750;11.970;2023-03-16T06:47:28;78200.72;;;-142.11;100.00
14800;BME280;7491;57.750;11.970;2023-03-16T06:49:57;78184.41;;;-142.11;100.00
14800;BME280;7491;57.750;11.970;2023-03-16T06:52:24;78184.41;;;-142.11;100.00
14800;BME280;7491;57.750;11.970;2023-03-16T06:54:50;78192.56;;;-142.11;100.00
14800;BME280;7491;57.750;11.970;2023-03-16T06:57:17;78194.63;;;-142.11;100.00
14800;BME280;7491;57.750;11.970;2023-03-16T06:59:44;78192.56;;;-142.11;100.00
14800;BME280;7491;57.750;11.970;2023-03-16T07:02:11;78176.25;;;-142.11;100.00
14800;BME280;7491;57.750;11.970;2023-03-16T07:04:39;78170.13;;;-142.11;100.00
14800;BME280;7491;57.750;11.970;2023-03-16T07:07:07;78164.03;;;-142.11;100.00
14800;BME280;7491;57.750;11.970;2023-03-16T07:09:34;78161.97;;;-142.11;100.00
14800;BME280;7491;57.750;11.970;2023-03-16T07:12:01;78155.84;;;-142.11;100.00
14800;BME280;7491;57.750;11.970;2023-03-16T07:14:28;78155.84;;;-142.11;100.00
14800;BME280;7491;57.750;11.970;2023-03-16T07:16:55;78149.75;;;-142.11;100.00
14800;BME280;7491;57.750;11.970;2023-03-16T07:19:22;78151.78;;;-142.11;100.00
14800;BME280;7491;57.750;11.970;2023-03-16T07:21:49;78161.97;;;-142.11;100.00
14800;BME280;7491;57.750;11.970;2023-03-16T07:24:17;78137.50;;;-142.11;100.00
14800;BME280;7491;57.750;11.970;2023-03-16T07:26:44;78127.31;;;-142.11;100.00
14800;BME280;7491;57.750;11.970;2023-03-16T07:29:11;78119.16;;;-142.11;100.00
14800;BME280;7491;57.750;11.970;2023-03-16T07:31:39;78102.84;;;-142.11;100.00
14800;BME280;7491;57.750;11.970;2023-03-16T07:34:05;78092.63;;;-142.11;100.00
14800;BME280;7491;57.750;11.970;2023-03-16T07:36:32;78076.31;;;-142.11;100.00
14800;BME280;7491;57.750;11.970;2023-03-16T07:38:59;78064.06;;;-142.11;100.00
14800;BME280;7491;57.750;11.970;2023-03-16T07:41:27;78064.06;;;-142.11;100.00
14800;BME280;7491;57.750;11.970;2023-03-16T07:43:54;78047.75;;;-142.11;100.00
14800;BME280;7491;57.750;11.970;2023-03-16T07:46:22;78033.47;;;-142.11;100.00
14800;BME280;7491;57.750;11.970;2023-03-16T07:48:49;78023.28;;;-142.11;100.00
14800;BME280;7491;57.750;11.970;2023-03-16T07:51:16;78004.94;;;-142.11;100.00
14800;BME280;7491;57.750;11.970;2023-03-16T07:53:42;77994.72;;;-142.11;100.00
14800;BME280;7491;57.750;11.970;2023-03-16T07:56:10;77972.28;;;-142.11;100.00
14800;BME280;7491;57.750;11.970;2023-03-16T07:58:38;77968.22;;;-142.11;100.00
14800;BME280;7491;57.750;11.970;2023-03-16T08:01:06;77929.47;;;-142.11;100.00
14800;BME280;7491;57.750;11.970;2023-03-16T08:03:33;77921.31;;;-142.11;100.00
14800;BME280;7491;57.750;11.970;2023-03-16T08:06:00;77905.00;;;-142.11;100.00
14800;BME280;7491;57.750;11.970;2023-03-16T08:08:26;77864.19;;;-142.11;100.00
14800;BME280;7491;57.750;11.970;2023-03-16T08:10:53;77847.88;;;-142.11;100.00
14800;BME280;7491;57.750;11.970;2023-03-16T08:13:20;77831.56;;;-142.11;100.00
14800;BME280;7491;57.750;11.970;2023-03-16T08:15:50;77811.16;;;-142.11;100.00
14800;BME280;7491;57.750;11.970;2023-03-16T08:18:23;77786.69;;;-142.11;100.00
14800;BME280;7491;57.750;11.970;2023-03-16T08:20:49;77778.53;;;-142.11;100.00
14800;BME280;7491;57.750;11.970;2023-03-16T08:23:16;77768.34;;;-142.11;100.00
14800;BME280;7491;57.750;11.970;2023-03-16T08:25:43;77739.78;;;-142.11;100.00
14800;BME280;7491;57.750;11.970;2023-03-16T08:28:10;77725.50;;;-142.11;100.00
14800;BME280;7491;57.750;11.970;2023-03-16T08:30:43;77715.31;;;-142.11;100.00
14800;BME280;7491;57.750;11.970;2023-03-16T08:33:11;77694.91;;;-142.11;100.00
14800;BME280;7491;57.750;11.970;2023-03-16T08:35:40;77672.50;;;-142.11;100.00
14800;BME280;7491;57.750;11.970;2023-03-16T08:38:08;77645.97;;;-142.11;100.00
14800;BME280;7491;57.750;11.970;2023-03-16T08:40:35;77639.88;;;-142.11;100.00
14800;BME280;7491;57.750;11.970;2023-03-16T08:43:01;77631.69;;;-142.11;100.00
14800;BME280;7491;57.750;11.970;2023-03-16T08:45:28;77619.47;;;-142.11;100.00
14800;BME280;7491;57.750;11.970;2023-03-16T08:47:55;77611.31;;;-142.11;100.00
14800;BME280;7491;57.750;11.970;2023-03-16T08:50:24;77597.03;;;-142.11;100.00
14800;BME280;7491;57.750;11.970;2023-03-16T08:52:51;77584.78;;;-142.11;100.00
14800;BME280;7491;57.750;11.970;2023-03-16T08:55:18;77562.38;;;-142.11;100.00
14800;BME280;7491;57.750;11.970;2023-03-16T08:57:45;77548.09;;;-142.11;100.00
14800;BME280;7491;57.750;11.970;2023-03-16T09:00:13;77541.97;;;-142.11;100.00
14800;BME280;7491;57.750;11.970;2023-03-16T09:02:42;77531.78;;;-142.11;100.00
14800;BME280;7491;57.750;11.970;2023-03-16T09:05:11;77533.81;;;-142.11;100.00
14800;BME280;7491;57.750;11.970;2023-03-16T09:07:40;77523.63;;;-142.11;100.00
14800;BME280;7491;57.750;11.970;2023-03-16T09:10:09;77513.41;;;-142.11;100.00
14800;BME280;7491;57.750;11.970;2023-03-16T09:12:39;77507.31;;;-142.11;100.00
14800;BME280;7491;57.750;11.970;2023-03-16T09:15:07;77507.31;;;-142.11;100.00
14800;BME280;7491;57.750;11.970;2023-03-16T09:17:36;77486.91;;;-142.11;100.00
14800;BME280;7491;57.750;11.970;2023-03-16T09:20:04;77460.41;;;-142.11;100.00
14800;BME280;7491;57.750;11.970;2023-03-16T09:22:34;77450.19;;;-142.11;100.00
14800;BME280;7491;57.750;11.970;2023-03-16T09:25:02;77444.09;;;-142.11;100.00
14800;BME280;7491;57.750;11.970;2023-03-16T09:27:30;77437.97;;;-142.11;100.00
14800;BME280;7491;57.750;11.970;2023-03-16T09:29:57;77429.81;;;-142.11;100.00
14800;BME280;7491;57.750;11.970;2023-03-16T09:32:25;77431.84;;;-142.11;100.00
14800;BME280;7491;57.750;11.970;2023-03-16T09:34:51;77421.66;;;-142.11;99.08
14800;BME280;7491;57.750;11.970;2023-03-16T09:37:18;77399.22;;;-142.11;100.00
14800;BME280;7491;57.750;11.970;2023-03-16T09:39:46;77387.00;;;-142.11;99.61
14800;BME280;7491;57.750;11.970;2023-03-16T09:42:18;77380.88;;;-142.11;97.48
14800;BME280;7491;57.750;11.970;2023-03-16T09:44:55;77378.84;;;-142.11;94.81
14800;BME280;7491;57.750;11.970;2023-03-16T09:47:26;77376.78;;;-142.11;94.33
14800;BME280;7491;57.750;11.970;2023-03-16T09:49:56;77356.41;;;-142.11;96.60
14800;BME280;7491;57.750;11.970;2023-03-16T09:52:28;77344.16;;;-142.11;95.33
14800;BME280;7491;57.750;11.970;2023-03-16T09:55:00;77342.13;;;-142.11;92.84
14800;BME280;7491;57.750;11.970;2023-03-16T09:57:32;77333.97;;;-142.11;92.71
14800;BME280;7491;57.750;11.970;2023-03-16T10:00:09;77321.72;;;-142.11;93.05
14800;BME280;7491;57.750;11.970;2023-03-16T10:02:49;77319.69;;;-142.11;93.13
14800;BME280;7491;57.750;11.970;2023-03-16T10:05:20;77307.47;;;-142.11;92.43
14800;BME280;7491;57.750;11.970;2023-03-16T10:07:53;77303.38;;;-142.11;92.68
14800;BME280;7491;57.750;11.970;2023-03-16T10:13:33;77291.16;;;-142.11;92.54
14800;BME280;7491;57.750;11.970;2023-03-16T10:16:06;77287.06;;;-142.11;92.51
14800;BME280;7491;57.750;11.970;2023-03-16T10:18:40;77250.38;;;-142.11;93.05
14800;BME280;7491;57.750;11.970;2023-03-16T10:21:11;77242.19;;;-142.11;90.91
14800;BME280;7491;57.750;11.970;2023-03-16T10:23:39;77254.44;;;-142.11;92.22
14800;BME280;7491;57.750;11.970;2023-03-16T10:26:12;77232.00;;;-142.11;90.90
14800;BME280;7491;57.750;11.970;2023-03-16T10:28:41;77201.41;;;-142.11;92.13
14800;BME280;7491;57.750;11.970;2023-03-16T10:31:10;77219.78;;;-142.11;90.96
14800;BME280;7491;57.750;11.970;2023-03-16T10:33:38;77205.50;;;-142.11;90.41
14800;BME280;7491;57.750;11.970;2023-03-16T10:36:12;77193.25;;;-142.11;89.16
14800;BME280;7491;57.750;11.970;2023-03-16T10:38:42;77168.78;;;-142.11;92.02
14800;BME280;7491;57.750;11.970;2023-03-16T10:41:20;77176.94;;;-142.11;89.05
14800;BME280;7491;57.750;11.970;2023-03-16T10:43:51;77174.91;;;-142.11;88.22
14800;BME280;7491;57.750;11.970;2023-03-16T10:46:18;77187.16;;;-142.11;87.97
14800;BME280;7491;57.750;11.970;2023-03-16T10:48:51;77172.88;;;-142.11;88.09
14800;BME280;7491;57.750;11.970;2023-03-16T10:51:22;77174.91;;;-142.11;86.67
14800;BME280;7491;57.750;11.970;2023-03-16T10:53:51;77193.25;;;-142.11;86.48
14800;BME280;7491;57.750;11.970;2023-03-16T10:56:21;77172.88;;;-142.11;86.05
14800;BME280;7491;57.750;11.970;2023-03-16T10:58:51;77152.47;;;-142.11;87.05
14800;BME280;7491;57.750;11.970;2023-03-16T11:01:20;77162.69;;;-142.11;85.57
14800;BME280;7491;57.750;11.970;2023-03-16T11:03:50;77146.38;;;-142.11;84.58
14800;BME280;7491;57.750;11.970;2023-03-16T11:06:22;77162.69;;;-142.11;82.62
14800;BME280;7491;57.750;11.970;2023-03-16T11:08:50;77164.72;;;-142.11;81.26
14800;BME280;7491;57.750;11.970;2023-03-16T11:11:25;77150.44;;;-142.11;82.90
14800;BME280;7491;57.750;11.970;2023-03-16T11:13:57;77123.94;;;-142.11;81.42
14800;BME280;7491;57.750;11.970;2023-03-16T11:16:30;77132.09;;;-142.11;79.63
14800;BME280;7491;57.750;11.970;2023-03-16T11:19:03;77134.13;;;-142.11;78.66
14800;BME280;7491;57.750;11.970;2023-03-16T11:21:40;77121.91;;;-142.11;79.37
14800;BME280;7491;57.750;11.970;2023-03-16T11:24:17;77138.22;;;-142.11;78.19
14800;BME280;7491;57.750;11.970;2023-03-16T11:26:45;77117.81;;;-142.11;78.27
14800;BME280;7491;57.750;11.970;2023-03-16T11:29:19;77121.91;;;-142.11;80.45
14800;BME280;7491;57.750;11.970;2023-03-16T11:31:50;77107.63;;;-142.11;79.98
14800;BME280;7491;57.750;11.970;2023-03-16T11:34:24;77101.50;;;-142.11;79.05
14800;BME280;7491;57.750;11.970;2023-03-16T11:36:54;77109.66;;;-142.11;80.96
14800;BME280;7491;57.750;11.970;2023-03-16T11:39:36;77105.59;;;-142.11;79.48
14800;BME280;7491;57.750;11.970;2023-03-16T11:42:21;77105.59;;;-142.11;79.95
14800;BME280;7491;57.750;11.970;2023-03-16T11:44:59;77103.53;;;-142.11;80.04
14800;BME280;7491;57.750;11.970;2023-03-16T11:47:57;77111.69;;;-142.11;79.27
14800;BME280;7491;57.750;11.970;2023-03-16T11:50:35;77109.66;;;-142.11;78.94
14800;BME280;7491;57.750;11.970;2023-03-16T11:53:13;77097.44;;;-142.11;78.96
14800;BME280;7491;57.750;11.970;2023-03-16T11:55:49;77101.50;;;-142.11;78.86
14800;BME280;7491;57.750;11.970;2023-03-16T11:58:31;77105.59;;;-142.11;78.88
14800;BME280;7491;57.750;11.970;2023-03-16T12:01:10;77101.50;;;-142.11;79.08
14800;BME280;7491;57.750;11.970;2023-03-16T12:03:52;77109.66;;;-142.11;78.01
14800;BME280;7491;57.750;11.970;2023-03-16T12:06:57;77107.63;;;-142.11;78.73
14800;BME280;7491;57.750;11.970;2023-03-16T12:09:54;77109.66;;;-142.11;77.57
14800;BME280;7491;57.750;11.970;2023-03-16T12:12:32;77091.31;;;-142.11;79.02
14800;BME280;7491;57.750;11.970;2023-03-16T12:15:27;77089.28;;;-142.11;77.81
14800;BME280;7491;57.750;11.970;2023-03-16T12:18:01;77075.00;;;-142.11;79.24
14800;BME280;7491;57.750;11.970;2023-03-16T12:20:33;77062.75;;;-142.11;78.58
14800;BME280;7491;57.750;11.970;2023-03-16T12:23:04;77072.97;;;-142.11;77.57
14800;BME280;7491;57.750;11.970;2023-03-16T12:25:35;77070.91;;;-142.11;77.90
14800;BME280;7491;57.750;11.970;2023-03-16T12:28:08;77054.59;;;-142.11;77.77
14800;BME280;7491;57.750;11.970;2023-03-16T12:30:43;77050.53;;;-142.11;77.22
14800;BME280;7491;57.750;11.970;2023-03-16T12:33:21;77032.19;;;-142.11;78.56
14800;BME280;7491;57.750;11.970;2023-03-16T12:35:56;77042.38;;;-142.11;78.10
14800;BME280;7491;57.750;11.970;2023-03-16T12:38:33;77026.06;;;-142.11;78.21
14800;BME280;7491;57.750;11.970;2023-03-16T12:41:10;77015.88;;;-142.11;77.16
14800;BME280;7491;57.750;11.970;2023-03-16T12:44:00;77017.91;;;-142.11;76.69
14800;BME280;7491;57.750;11.970;2023-03-16T12:46:37;77009.75;;;-142.11;76.60
14800;BME280;7491;57.750;11.970;2023-03-16T12:49:08;77028.09;;;-142.11;75.55
14800;BME280;7491;57.750;11.970;2023-03-16T12:51:36;77021.97;;;-142.11;75.14
14800;BME280;7491;57.750;11.970;2023-03-16T12:54:04;77028.09;;;-142.11;75.05
14800;BME280;7491;57.750;11.970;2023-03-16T12:56:34;77024.03;;;-142.11;73.35
14800;BME280;7491;57.750;11.970;2023-03-16T12:59:03;77017.91;;;-142.11;72.36
14800;BME280;7491;57.750;11.970;2023-03-16T13:01:36;77007.72;;;-142.11;72.39
14800;BME280;7491;57.750;11.970;2023-03-16T13:04:10;77009.75;;;-142.11;70.70
14800;BME280;7491;57.750;11.970;2023-03-16T13:06:42;77019.94;;;-142.11;69.46
14800;BME280;7491;57.750;11.970;2023-03-16T13:09:10;77017.91;;;-142.11;69.17
14800;BME280;7491;57.750;11.970;2023-03-16T13:11:41;77017.91;;;-142.11;71.47
14800;BME280;7491;57.750;11.970;2023-03-16T13:14:15;77021.97;;;-142.11;70.00
14800;BME280;7491;57.750;11.970;2023-03-16T13:16:42;77028.09;;;-142.11;69.88
14800;BME280;7491;57.750;11.970;2023-03-16T13:19:28;77030.13;;;-142.11;71.31
14800;BME280;7491;57.750;11.970;2023-03-16T13:22:04;77019.94;;;-142.11;71.12
14800;BME280;7491;57.750;11.970;2023-03-16T13:24:37;77030.13;;;-142.11;71.21
14800;BME280;7491;57.750;11.970;2023-03-16T13:27:14;77017.91;;;-142.11;72.12
14800;BME280;7491;57.750;11.970;2023-03-16T13:29:51;77024.03;;;-142.11;71.82
14800;BME280;7491;57.750;11.970;2023-03-16T13:32:20;77015.88;;;-142.11;72.20
14800;BME280;7491;57.750;11.970;2023-03-16T13:34:50;77015.88;;;-142.11;72.03
14800;BME280;7491;57.750;11.970;2023-03-16T13:37:19;77024.03;;;-142.11;71.86
14800;BME280;7491;57.750;11.970;2023-03-16T13:39:51;77019.94;;;-142.11;74.57
14800;BME280;7491;57.750;11.970;2023-03-16T13:42:20;77021.97;;;-142.11;72.53
14800;BME280;7491;57.750;11.970;2023-03-16T13:44:47;77017.91;;;-142.11;72.42
14800;BME280;7491;57.750;11.970;2023-03-16T13:47:18;77007.72;;;-142.11;73.06
14800;BME280;7491;57.750;11.970;2023-03-16T13:49:46;77013.81;;;-142.11;72.63
14800;BME280;7491;57.750;11.970;2023-03-16T13:52:21;77034.22;;;-142.11;73.58
14800;BME280;7491;57.750;11.970;2023-03-16T13:54:50;77026.06;;;-142.11;73.43
14800;BME280;7491;57.750;11.970;2023-03-16T13:57:19;77011.78;;;-142.11;73.03
14800;BME280;7491;57.750;11.970;2023-03-16T13:59:46;77021.97;;;-142.11;73.73
14800;BME280;7491;57.750;11.970;2023-03-16T14:02:17;77017.91;;;-142.11;74.02
14800;BME280;7491;57.750;11.970;2023-03-16T14:04:45;77013.81;;;-142.11;73.48
14800;BME280;7491;57.750;11.970;2023-03-16T14:07:16;77009.75;;;-142.11;72.39
14800;BME280;7491;57.750;11.970;2023-03-16T14:09:44;77011.78;;;-142.11;72.77
14800;BME280;7491;57.750;11.970;2023-03-16T14:12:13;77015.88;;;-142.11;72.32
14800;BME280;7491;57.750;11.970;2023-03-16T14:14:44;77026.06;;;-142.11;71.57
14800;BME280;7491;57.750;11.970;2023-03-16T14:17:13;77024.03;;;-142.11;71.31
14800;BME280;7491;57.750;11.970;2023-03-16T14:19:44;77017.91;;;-142.11;71.59
14800;BME280;7491;57.750;11.970;2023-03-16T14:22:13;77024.03;;;-142.11;70.67
14800;BME280;7491;57.750;11.970;2023-03-16T14:24:43;77021.97;;;-142.11;71.39